Time;durP1;ratioP1;P1;durP2;ratioP2;P2;SDS_P1;SDS_P2;PMS_P1;PMS_P2;Temp;Humidity;BMP_temperature;BMP_pressure;BME280_temperature;BME280_humidity;BME280_pressure;Samples;Min_cycle;Max_cycle;Signal;HPM_P1;HPM_P2
2023/03/01 00:02:04;;;;;;;24.65;13.85;;;;;;;-0.17;87.41;103476.38;6082629;19;20020;-69
2023/03/01 00:04:12;;;;;;;24.45;13.07;;;;;;;-0.22;87.41;103476.16;6103230;19;20346;-69
2023/03/01 00:06:18;;;;;;;22.40;13.35;;;;;;;-0.18;87.61;103472.91;6104163;19;20007;-69
2023/03/01 00:08:23;;;;;;;23.15;12.40;;;;;;;-0.22;87.59;103471.88;6103627;19;20038;-70
2023/03/01 00:10:27;;;;;;;24.65;14.02;;;;;;;-0.26;87.68;103471.69;6102708;19;20021;-69
2023/03/01 00:12:33;;;;;;;29.23;13.32;;;;;;;-0.25;87.80;103466.56;6081055;19;20025;-69
2023/03/01 00:14:40;;;;;;;20.73;12.73;;;;;;;-0.25;87.64;103468.28;6102445;19;20042;-69
2023/03/01 00:16:49;;;;;;;25.17;13.02;;;;;;;-0.26;88.14;103457.06;6102114;19;20018;-69
2023/03/01 00:18:54;;;;;;;26.42;13.85;;;;;;;-0.16;88.34;103466.09;6098836;19;20018;-71
2023/03/01 00:21:01;;;;;;;24.38;12.35;;;;;;;-0.19;88.26;103462.50;6104723;19;20720;-70
2023/03/01 00:23:06;;;;;;;25.05;12.57;;;;;;;-0.23;88.65;103452.03;6103982;19;20660;-68
2023/03/01 00:25:16;;;;;;;23.45;13.35;;;;;;;-0.22;88.33;103452.91;6101673;19;20353;-69
2023/03/01 00:27:21;;;;;;;23.60;13.00;;;;;;;-0.26;88.12;103448.41;6103274;19;20122;-69
2023/03/01 00:29:27;;;;;;;23.40;12.77;;;;;;;-0.28;88.96;103456.09;6106347;19;20606;-68
2023/03/01 00:31:34;;;;;;;27.85;14.77;;;;;;;-0.29;88.91;103458.59;6105560;19;20538;-71
2023/03/01 00:33:38;;;;;;;24.88;13.80;;;;;;;-0.36;88.04;103451.38;6097378;19;20527;-69
2023/03/01 00:35:43;;;;;;;24.52;12.98;;;;;;;-0.37;88.86;103455.69;6107827;19;20011;-69
2023/03/01 00:37:53;;;;;;;28.55;14.75;;;;;;;-0.40;88.54;103454.63;6108808;19;20443;-68
2023/03/01 00:40:01;;;;;;;26.08;12.68;;;;;;;-0.48;88.98;103449.09;6107094;19;20010;-69
2023/03/01 00:42:05;;;;;;;25.92;13.88;;;;;;;-0.51;88.91;103452.44;6083867;19;20735;-69
2023/03/01 00:44:11;;;;;;;24.45;13.45;;;;;;;-0.51;88.82;103451.53;6104727;19;20019;-70
2023/03/01 00:46:23;;;;;;;30.60;14.77;;;;;;;-0.57;88.69;103453.84;6106408;19;20478;-69
2023/03/01 00:48:33;;;;;;;27.05;15.45;;;;;;;-0.60;88.87;103452.00;6108918;19;20030;-69
2023/03/01 00:50:37;;;;;;;22.23;12.75;;;;;;;-0.59;89.00;103452.88;6110694;19;20047;-69
2023/03/01 00:52:42;;;;;;;23.27;13.75;;;;;;;-0.67;89.25;103447.34;6105335;19;20011;-70
2023/03/01 00:54:50;;;;;;;24.05;13.50;;;;;;;-0.69;89.21;103447.25;6103410;19;20023;-69
2023/03/01 00:56:55;;;;;;;25.33;13.05;;;;;;;-0.77;89.02;103446.00;6106251;19;20038;-69
2023/03/01 00:59:00;;;;;;;25.67;14.68;;;;;;;-0.80;89.97;103460.47;6109128;19;20447;-69
2023/03/01 01:01:16;;;;;;;22.17;12.27;;;;;;;-0.90;89.12;103451.41;6084089;19;20007;-69
2023/03/01 01:03:23;;;;;;;20.30;11.68;;;;;;;-0.94;89.01;103450.38;6108408;19;20010;-69
2023/03/01 01:05:28;;;;;;;25.13;13.70;;;;;;;-1.03;89.38;103449.91;6108137;19;20362;-69
2023/03/01 01:07:38;;;;;;;23.52;12.25;;;;;;;-1.07;89.06;103449.72;6108808;19;20010;-69
2023/03/01 01:09:42;;;;;;;27.67;13.77;;;;;;;-1.16;89.88;103452.69;6105521;19;20022;-69
2023/03/01 01:11:53;;;;;;;22.02;12.48;;;;;;;-1.19;89.31;103444.81;6106799;19;20062;-69
2023/03/01 01:14:00;;;;;;;20.73;11.60;;;;;;;-1.20;89.72;103446.50;6106720;19;20015;-69
2023/03/01 01:16:12;;;;;;;29.00;13.30;;;;;;;-1.17;89.92;103450.94;6106877;19;20011;-69
2023/03/01 01:18:17;;;;;;;25.08;14.40;;;;;;;-1.20;89.79;103446.50;6106749;19;20011;-69
2023/03/01 01:20:22;;;;;;;28.00;15.68;;;;;;;-1.22;90.84;103442.06;6109802;19;20018;-69
2023/03/01 01:22:27;;;;;;;28.52;13.80;;;;;;;-1.28;90.32;103447.81;6086348;19;20364;-69
2023/03/01 01:24:33;;;;;;;29.45;14.07;;;;;;;-1.34;90.17;103447.53;6108152;19;20014;-69
2023/03/01 01:26:38;;;;;;;25.42;15.02;;;;;;;-1.32;90.30;103445.88;6082612;19;20038;-69
2023/03/01 01:28:45;;;;;;;28.98;14.43;;;;;;;-1.29;90.48;103442.56;6107472;19;20015;-69
2023/03/01 01:30:51;;;;;;;29.45;15.40;;;;;;;-1.31;90.83;103436.47;6106464;19;20038;-69
2023/03/01 01:32:56;;;;;;;27.13;14.77;;;;;;;-1.33;90.64;103429.53;6109356;19;20311;-69
2023/03/01 01:35:00;;;;;;;27.05;14.88;;;;;;;-1.36;90.94;103423.34;6105899;19;20003;-69
2023/03/01 01:37:07;;;;;;;28.27;14.68;;;;;;;-1.36;90.44;103420.75;6110614;19;20038;-69
2023/03/01 01:39:14;;;;;;;26.20;14.10;;;;;;;-1.37;90.62;103411.22;6109487;19;20026;-71
2023/03/01 01:41:20;;;;;;;27.73;14.95;;;;;;;-1.39;90.88;103408.59;6109774;19;20017;-69
2023/03/01 01:43:28;;;;;;;27.92;14.20;;;;;;;-1.37;90.85;103406.97;6115729;19;20031;-69
2023/03/01 01:45:38;;;;;;;32.88;16.00;;;;;;;-1.38;91.23;103402.63;6108544;19;20014;-69
2023/03/01 01:47:43;;;;;;;30.85;15.07;;;;;;;-1.42;91.40;103399.78;6114465;19;20018;-70
2023/03/01 01:49:53;;;;;;;28.52;14.40;;;;;;;-1.44;90.88;103399.75;6112290;19;20014;-69
2023/03/01 01:52:05;;;;;;;33.80;15.77;;;;;;;-1.37;91.83;103391.50;6111684;19;20042;-69
2023/03/01 01:54:16;;;;;;;24.43;13.30;;;;;;;-1.43;91.44;103380.88;6112195;19;20094;-69
2023/03/01 01:56:22;;;;;;;32.08;16.02;;;;;;;-1.46;91.43;103395.31;6113846;19;20101;-68
2023/03/01 01:58:31;;;;;;;27.50;13.32;;;;;;;-1.48;91.18;103384.91;6093883;19;20076;-68
2023/03/01 02:00:40;;;;;;;29.38;15.15;;;;;;;-1.53;91.53;103388.94;6113007;19;20025;-72
2023/03/01 02:02:47;;;;;;;37.58;16.13;;;;;;;-1.48;92.03;103389.19;6109474;19;20559;-68
2023/03/01 02:04:58;;;;;;;35.78;16.40;;;;;;;-1.44;92.56;103388.53;6091965;19;20042;-68
2023/03/01 02:07:10;;;;;;;28.85;15.48;;;;;;;-1.44;92.05;103383.38;6110053;19;20034;-69
2023/03/01 02:09:18;;;;;;;34.38;15.85;;;;;;;-1.46;92.32;103385.88;6109387;19;20543;-69
2023/03/01 02:11:23;;;;;;;27.95;14.65;;;;;;;-1.48;92.05;103397.81;6087006;19;20066;-70
2023/03/01 02:13:28;;;;;;;31.55;15.13;;;;;;;-1.55;91.77;103390.59;6088283;19;20010;-69
2023/03/01 02:15:35;;;;;;;33.83;15.73;;;;;;;-1.54;92.36;103387.19;6090955;19;20031;-70
2023/03/01 02:17:43;;;;;;;30.10;16.05;;;;;;;-1.57;92.04;103390.50;6098737;19;20094;-69
2023/03/01 02:20:00;;;;;;;28.63;13.57;;;;;;;-1.62;91.54;103381.66;6104410;19;20093;-70
2023/03/01 02:22:15;;;;;;;32.88;15.40;;;;;;;-1.62;91.89;103378.19;6084556;19;20014;-69
2023/03/01 02:24:30;;;;;;;29.15;15.00;;;;;;;-1.64;92.12;103372.06;6105842;19;20011;-69
2023/03/01 02:26:45;;;;;;;29.98;15.23;;;;;;;-1.65;92.62;103372.88;6103653;19;20466;-69
2023/03/01 02:28:53;;;;;;;32.45;17.55;;;;;;;-1.68;92.71;103375.31;6109227;19;20011;-69
2023/03/01 02:33:15;;;;;;;30.13;15.20;;;;;;;-1.82;92.45;103365.19;6082913;19;20410;-71
2023/03/01 02:35:21;;;;;;;33.00;16.17;;;;;;;-1.88;92.72;103371.69;6106766;19;20502;-69
2023/03/01 02:37:28;;;;;;;32.63;14.68;;;;;;;-1.92;92.13;103367.19;6107748;19;20011;-68
2023/03/01 02:39:37;;;;;;;33.75;16.10;;;;;;;-1.90;92.95;103375.88;6102218;19;20014;-70
2023/03/01 02:41:45;;;;;;;37.42;17.48;;;;;;;-1.93;92.56;103375.72;6106964;19;20582;-71
2023/03/01 02:43:53;;;;;;;31.50;17.17;;;;;;;-1.93;92.89;103370.56;6107440;19;20547;-70
2023/03/01 02:46:01;;;;;;;32.70;14.95;;;;;;;-1.95;92.77;103365.31;6083206;19;20018;-70
2023/03/01 02:48:06;;;;;;;35.10;16.38;;;;;;;-1.92;93.51;103369.75;6106848;19;19998;-70
2023/03/01 02:50:26;;;;;;;35.80;14.95;;;;;;;-1.97;92.97;103364.41;6104618;19;20094;-70
2023/03/01 02:52:42;;;;;;;32.72;16.08;;;;;;;-1.97;93.10;103359.25;6109221;19;20022;-71
2023/03/01 02:54:53;;;;;;;34.13;15.98;;;;;;;-1.99;93.45;103360.84;6107393;19;20179;-68
2023/03/01 02:56:58;;;;;;;36.20;15.23;;;;;;;-2.06;92.99;103354.47;6102089;19;20017;-68
2023/03/01 02:59:07;;;;;;;37.33;16.50;;;;;;;-2.11;92.74;103355.03;6104965;19;20049;-69
2023/03/01 03:01:13;;;;;;;32.95;15.18;;;;;;;-2.17;93.03;103355.63;6106606;19;20094;-69
2023/03/01 03:03:20;;;;;;;34.47;15.85;;;;;;;-2.13;93.77;103351.50;6103044;19;20019;-69
2023/03/01 03:05:26;;;;;;;46.53;16.77;;;;;;;-2.08;93.74;103350.03;6102938;19;20018;-69
2023/03/01 03:07:32;;;;;;;33.78;15.93;;;;;;;-2.03;93.83;103348.59;6105949;19;20835;-69
2023/03/01 03:09:37;;;;;;;40.70;17.20;;;;;;;-2.02;93.91;103346.13;6105157;19;20014;-68
2023/03/01 03:11:42;;;;;;;35.67;17.98;;;;;;;-1.98;93.69;103344.56;6107624;19;20094;-68
2023/03/01 03:13:53;;;;;;;39.75;18.00;;;;;;;-2.01;93.23;103345.28;6106172;19;20019;-69
2023/03/01 03:16:01;;;;;;;30.77;15.02;;;;;;;-2.05;93.07;103345.06;6105558;19;20006;-69
2023/03/01 03:18:07;;;;;;;38.17;17.83;;;;;;;-2.01;93.81;103341.84;6103195;19;20038;-69
2023/03/01 03:20:18;;;;;;;32.00;16.88;;;;;;;-2.02;93.98;103340.97;6083338;19;20109;-69
2023/03/01 03:22:23;;;;;;;35.55;16.65;;;;;;;-1.97;94.04;103338.63;6103677;19;20026;-68
2023/03/01 03:24:37;;;;;;;38.40;18.90;;;;;;;-1.91;94.47;103343.22;6086858;19;20132;-68
2023/03/01 03:26:42;;;;;;;37.67;16.10;;;;;;;-1.98;94.07;103332.56;6104140;19;20011;-70
2023/03/01 03:28:47;;;;;;;42.28;18.52;;;;;;;-2.03;93.72;103339.19;6101920;19;20370;-70
2023/03/01 03:30:51;;;;;;;38.60;17.40;;;;;;;-2.08;94.17;103329.44;6102105;19;20691;-69
2023/03/01 03:33:00;;;;;;;32.78;16.67;;;;;;;-2.11;94.13;103325.00;6104210;19;20018;-69
2023/03/01 03:35:09;;;;;;;39.85;18.20;;;;;;;-2.17;93.46;103326.41;6104980;19;20023;-70
2023/03/01 03:38:01;;;;;;;31.77;16.63;;;;;;;-2.19;93.87;103326.31;6095480;19;20007;-68
2023/03/01 03:39:38;;;;;;;41.67;18.63;;;;;;;-2.22;94.25;103339.91;6101841;19;20014;-68
2023/03/01 03:41:43;;;;;;;39.28;17.90;;;;;;;-2.26;93.94;103332.84;6104539;19;20509;-71
2023/03/01 03:43:50;;;;;;;43.55;20.65;;;;;;;-2.23;94.53;103324.41;6100271;19;20369;-69
2023/03/01 03:45:57;;;;;;;39.42;16.90;;;;;;;-2.22;94.92;103327.03;6104890;19;20017;-69
2023/03/01 03:48:06;;;;;;;42.22;19.15;;;;;;;-2.30;94.54;103328.31;6103448;19;20030;-69
2023/03/01 03:50:12;;;;;;;43.58;18.00;;;;;;;-2.36;94.33;103322.00;6105897;19;20007;-70
2023/03/01 03:52:17;;;;;;;39.10;18.25;;;;;;;-2.42;94.61;103327.69;6106062;19;20014;-69
2023/03/01 03:54:22;;;;;;;45.85;19.13;;;;;;;-2.45;94.42;103338.72;6100283;19;20042;-69
2023/03/01 03:56:27;;;;;;;35.75;16.27;;;;;;;-2.47;94.45;103321.41;6103755;19;20011;-69
2023/03/01 03:58:32;;;;;;;34.88;17.15;;;;;;;-2.51;94.11;103328.06;6104022;19;20010;-70
2023/03/01 04:00:39;;;;;;;41.80;18.35;;;;;;;-2.48;94.98;103327.34;6101983;19;20146;-69
2023/03/01 04:02:46;;;;;;;41.70;18.35;;;;;;;-2.50;95.22;103334.09;6103117;19;20727;-70
2023/03/01 04:04:53;;;;;;;43.50;20.58;;;;;;;-2.54;95.48;103332.19;6104854;19;20655;-70
2023/03/01 04:06:59;;;;;;;39.80;17.88;;;;;;;-2.65;94.71;103323.91;6104131;19;20007;-70
2023/03/01 04:09:04;;;;;;;35.90;17.90;;;;;;;-2.68;94.48;103326.31;6101120;19;20010;-70
2023/03/01 04:13:26;;;;;;;33.58;15.98;;;;;;;-2.74;94.71;103325.97;6105947;19;20010;-71
2023/03/01 04:15:33;;;;;;;36.55;16.42;;;;;;;-2.73;95.08;103325.19;6103244;19;20472;-68
2023/03/01 04:17:39;;;;;;;40.55;18.10;;;;;;;-2.76;94.88;103328.47;6089672;19;20028;-68
2023/03/01 04:19:43;;;;;;;38.38;15.75;;;;;;;-2.78;94.08;103329.19;6105372;19;20660;-68
2023/03/01 04:21:53;;;;;;;37.85;18.75;;;;;;;-2.83;94.18;103326.34;6102648;19;20015;-69
2023/03/01 04:23:58;;;;;;;43.95;20.55;;;;;;;-2.84;94.35;103322.03;6102858;19;20011;-70
2023/03/01 04:26:03;;;;;;;45.72;18.50;;;;;;;-2.92;93.77;103328.44;6103641;19;20447;-69
2023/03/01 04:28:08;;;;;;;40.50;18.52;;;;;;;-2.96;94.38;103324.78;6107389;19;20035;-69
2023/03/01 04:30:14;;;;;;;47.33;19.50;;;;;;;-2.94;94.74;103324.88;6105367;19;20031;-69
2023/03/01 04:32:20;;;;;;;39.33;19.95;;;;;;;-2.94;95.16;103325.78;6105147;19;20021;-69
2023/03/01 04:34:29;;;;;;;46.03;19.55;;;;;;;-2.92;94.71;103328.44;6104034;19;20018;-69
2023/03/01 04:36:35;;;;;;;45.55;19.05;;;;;;;-2.89;94.91;103319.19;6104378;19;20006;-69
2023/03/01 04:38:48;;;;;;;48.22;20.45;;;;;;;-2.72;96.43;103317.50;6105463;19;20094;-69
2023/03/01 04:40:53;;;;;;;43.47;17.77;;;;;;;-2.70;95.80;103315.91;6103661;19;20025;-69
2023/03/01 04:42:58;;;;;;;42.25;19.27;;;;;;;-2.65;95.61;103313.59;6106327;19;20034;-69
2023/03/01 04:45:03;;;;;;;60.22;21.33;;;;;;;-2.59;95.86;103311.34;6104710;19;20452;-69
2023/03/01 04:47:08;;;;;;;44.88;17.60;;;;;;;-2.55;95.58;103309.84;6103248;19;20019;-69
2023/03/01 04:49:13;;;;;;;40.13;18.20;;;;;;;-2.53;95.58;103305.63;6107293;19;20382;-68
2023/03/01 04:51:18;;;;;;;34.55;16.30;;;;;;;-2.50;95.77;103303.22;6103590;19;20138;-69
2023/03/01 04:53:24;;;;;;;81.28;23.00;;;;;;;-2.45;96.01;103297.53;6107426;19;20030;-69
2023/03/01 04:55:33;;;;;;;39.80;18.05;;;;;;;-2.44;95.96;103294.13;6109910;19;20471;-69
2023/03/01 04:57:38;;;;;;;39.53;17.30;;;;;;;-2.42;95.79;103289.09;6084982;19;20079;-72
2023/03/01 04:59:43;;;;;;;83.25;24.55;;;;;;;-2.38;96.02;103287.53;6105290;19;20034;-69
2023/03/01 05:01:48;;;;;;;83.32;22.10;;;;;;;-2.37;96.20;103290.22;6106483;19;20035;-69
2023/03/01 05:03:54;;;;;;;67.15;21.17;;;;;;;-2.34;96.02;103287.78;6099502;19;20094;-69
2023/03/01 05:06:02;;;;;;;40.13;17.50;;;;;;;-2.32;96.10;103286.16;6101657;19;20034;-69
2023/03/01 05:08:17;;;;;;;50.28;16.88;;;;;;;-2.28;96.01;103277.78;6105617;19;20007;-69
2023/03/01 05:10:22;;;;;;;46.15;21.92;;;;;;;-2.30;96.22;103275.94;6103093;19;20035;-69
2023/03/01 05:12:29;;;;;;;84.53;22.08;;;;;;;-2.28;95.81;103277.78;6102822;19;20026;-69
2023/03/01 05:14:34;;;;;;;78.80;22.05;;;;;;;-2.30;96.30;103279.41;6108478;19;20029;-69
2023/03/01 05:16:39;;;;;;;40.83;20.30;;;;;;;-2.33;96.13;103284.41;6109589;19;20436;-70
2023/03/01 05:18:45;;;;;;;34.50;15.85;;;;;;;-2.36;96.03;103276.50;6106166;19;20011;-69
2023/03/01 05:20:55;;;;;;;28.45;13.93;;;;;;;-2.37;95.82;103282.47;6111083;19;20014;-69
2023/03/01 05:23:04;;;;;;;44.47;19.67;;;;;;;-2.37;95.81;103277.34;6106153;19;20019;-69
2023/03/01 05:25:10;;;;;;;42.90;18.83;;;;;;;-2.38;96.21;103277.25;6108142;19;20019;-69
2023/03/01 05:27:21;;;;;;;41.10;19.50;;;;;;;-2.42;95.93;103276.22;6015282;19;20092;-69
2023/03/01 05:29:31;;;;;;;31.35;15.15;;;;;;;-2.43;95.73;103274.41;6105712;19;20010;-69
2023/03/01 05:31:37;;;;;;;41.35;18.67;;;;;;;-2.45;95.68;103265.72;6107887;19;20011;-69
2023/03/01 05:33:43;;;;;;;35.20;17.70;;;;;;;-2.50;95.84;103252.63;6083117;19;20506;-69
2023/03/01 05:35:48;;;;;;;35.17;16.80;;;;;;;-2.53;95.72;103252.44;6105999;19;20019;-69
2023/03/01 05:37:53;;;;;;;39.75;17.10;;;;;;;-2.59;96.10;103249.56;6104110;19;20494;-70
2023/03/01 05:40:20;;;;;;;46.50;20.27;;;;;;;-2.63;96.37;103244.16;6109405;19;20054;-69
2023/03/01 05:42:25;;;;;;;40.90;19.48;;;;;;;-2.69;96.44;103242.16;6107183;19;20444;-69
2023/03/01 05:44:32;;;;;;;46.05;21.88;;;;;;;-2.73;96.71;103238.56;6106871;19;20302;-69
2023/03/01 05:46:37;;;;;;;48.10;19.70;;;;;;;-2.75;96.58;103235.00;6107068;19;20027;-69
2023/03/01 05:48:42;;;;;;;38.38;17.58;;;;;;;-2.78;96.46;103232.28;6106105;19;20011;-69
2023/03/01 05:50:50;;;;;;;43.05;20.30;;;;;;;-2.77;96.47;103236.59;6104541;19;20015;-69
2023/03/01 05:53:02;;;;;;;33.35;15.45;;;;;;;-2.81;95.79;103234.69;6106549;19;20028;-69
2023/03/01 05:55:09;;;;;;;35.20;15.65;;;;;;;-2.84;95.87;103242.25;6105490;19;20007;-69
2023/03/01 05:57:14;;;;;;;41.33;19.15;;;;;;;-2.87;95.81;103239.50;6104671;19;20631;-70
2023/03/01 05:59:19;;;;;;;33.75;17.08;;;;;;;-2.92;95.91;103246.13;6107173;19;20021;-69
2023/03/01 06:01:27;;;;;;;41.85;20.20;;;;;;;-2.94;96.15;103235.72;6108438;19;20014;-72
2023/03/01 06:03:32;;;;;;;32.47;15.98;;;;;;;-2.95;96.33;103238.22;6105304;19;20015;-69
2023/03/01 06:05:58;;;;;;;39.83;16.90;;;;;;;-2.96;96.08;103236.44;6110020;19;20574;-70
2023/03/01 06:08:03;;;;;;;37.33;18.52;;;;;;;-2.99;95.93;103234.59;6097891;19;20466;-70
2023/03/01 06:10:09;;;;;;;35.03;17.77;;;;;;;-3.04;95.89;103230.00;6106855;19;20609;-70
2023/03/01 06:12:15;;;;;;;39.33;18.58;;;;;;;-3.05;96.22;103243.66;6105790;19;20015;-70
2023/03/01 06:14:20;;;;;;;52.90;21.92;;;;;;;-3.03;96.95;103239.47;6102417;19;20050;-70
2023/03/01 06:16:28;;;;;;;40.90;18.25;;;;;;;-3.14;96.04;103238.91;6106196;19;20034;-68
2023/03/01 06:18:33;;;;;;;35.60;18.88;;;;;;;-3.16;96.00;103243.06;6103221;19;20013;-68
2023/03/01 06:20:38;;;;;;;42.13;16.70;;;;;;;-3.21;95.65;103242.84;6105669;19;20372;-70
2023/03/01 06:22:43;;;;;;;41.47;17.63;;;;;;;-3.23;95.82;103234.16;6108322;19;20025;-69
2023/03/01 06:24:49;;;;;;;43.00;19.58;;;;;;;-3.25;95.99;103235.75;6102486;19;20021;-70
2023/03/01 06:26:55;;;;;;;45.92;20.45;;;;;;;-3.24;96.19;103244.34;6105269;19;20318;-70
2023/03/01 06:29:00;;;;;;;48.22;21.15;;;;;;;-3.29;95.70;103249.25;6106672;19;20014;-70
2023/03/01 06:31:08;;;;;;;46.03;19.10;;;;;;;-3.24;96.34;103242.66;6105207;19;20036;-69
2023/03/01 06:33:16;;;;;;;44.45;18.63;;;;;;;-3.28;96.16;103245.88;6105477;19;20428;-69
2023/03/01 06:35:21;;;;;;;42.97;19.83;;;;;;;-3.28;96.20;103247.56;6106865;19;20013;-70
2023/03/01 06:37:26;;;;;;;41.38;17.75;;;;;;;-3.33;95.70;103245.63;6107958;19;20589;-70
2023/03/01 06:39:31;;;;;;;29.50;15.10;;;;;;;-3.32;95.66;103249.97;6083080;19;20396;-69
2023/03/01 06:41:36;;;;;;;38.88;18.08;;;;;;;-3.33;95.72;103247.31;6108110;19;20010;-70
2023/03/01 06:43:41;;;;;;;39.65;18.90;;;;;;;-3.32;95.70;103256.78;6103254;19;20002;-70
2023/03/01 06:45:46;;;;;;;46.72;18.48;;;;;;;-3.26;96.11;103257.13;6105942;19;20111;-70
2023/03/01 06:47:51;;;;;;;42.20;21.05;;;;;;;-3.19;96.74;103253.19;6108309;19;20098;-69
2023/03/01 06:49:58;;;;;;;42.15;16.45;;;;;;;-3.27;96.02;103254.47;6085323;19;20043;-70
2023/03/01 06:52:03;;;;;;;46.80;21.25;;;;;;;-3.32;96.06;103243.91;6107462;19;20014;-69
2023/03/01 06:54:08;;;;;;;41.95;18.48;;;;;;;-3.34;95.70;103255.84;6105809;19;20072;-70
2023/03/01 06:56:13;;;;;;;40.72;19.88;;;;;;;-3.32;95.79;103249.06;6107218;19;20006;-70
2023/03/01 06:58:19;;;;;;;39.55;17.70;;;;;;;-3.36;95.54;103260.00;6107685;19;20010;-69
2023/03/01 07:00:25;;;;;;;43.67;19.90;;;;;;;-3.40;95.39;103258.91;6106651;19;20010;-70
2023/03/01 07:02:30;;;;;;;53.00;21.95;;;;;;;-3.33;95.70;103260.16;6106394;19;20010;-70
2023/03/01 07:04:35;;;;;;;39.00;17.30;;;;;;;-3.37;95.46;103255.63;6106391;19;20017;-69
2023/03/01 07:06:42;;;;;;;44.40;19.80;;;;;;;-3.38;95.27;103256.44;6109000;19;20699;-70
2023/03/01 07:08:47;;;;;;;40.40;18.52;;;;;;;-3.36;95.28;103252.28;6107960;19;20007;-70
2023/03/01 07:10:57;;;;;;;47.75;20.50;;;;;;;-3.31;95.62;103250.84;6085086;19;20011;-71
2023/03/01 07:13:02;;;;;;;44.00;17.88;;;;;;;-3.27;95.97;103257.03;6108631;19;20022;-70
2023/03/01 07:15:09;;;;;;;37.70;20.85;;;;;;;-3.27;95.52;103257.91;6107732;19;20086;-70
2023/03/01 07:17:14;;;;;;;42.45;19.27;;;;;;;-3.16;95.63;103256.84;6106700;19;20019;-69
2023/03/01 07:19:18;;;;;;;41.85;19.05;;;;;;;-3.02;95.93;103255.00;6106994;19;20102;-70
2023/03/01 07:21:23;;;;;;;41.60;16.90;;;;;;;-2.95;95.82;103253.63;6109255;19;20335;-69
2023/03/01 07:23:31;;;;;;;46.65;21.17;;;;;;;-2.88;95.79;103258.31;6107078;19;20046;-69
2023/03/01 07:25:37;;;;;;;42.90;19.08;;;;;;;-2.86;95.45;103259.28;6106668;19;20034;-70
2023/03/01 07:27:41;;;;;;;43.15;19.90;;;;;;;-2.84;95.49;103262.84;6101489;19;20015;-69
2023/03/01 07:29:46;;;;;;;50.38;21.85;;;;;;;-2.84;94.93;103259.34;6107411;19;20078;-69
2023/03/01 07:31:53;;;;;;;36.05;17.85;;;;;;;-2.80;95.13;103259.63;6106352;19;20014;-69
2023/03/01 07:33:57;;;;;;;38.95;17.90;;;;;;;-2.76;95.45;103261.56;6102102;19;20015;-69
2023/03/01 07:36:04;;;;;;;40.92;18.58;;;;;;;-2.68;95.53;103260.28;6103128;19;20012;-70
2023/03/01 07:38:09;;;;;;;46.85;20.88;;;;;;;-2.57;95.63;103260.84;6107246;19;20094;-69
2023/03/01 07:40:17;;;;;;;49.17;21.48;;;;;;;-2.43;95.75;103257.28;6104854;19;20048;-69
2023/03/01 07:42:22;;;;;;;48.35;22.27;;;;;;;-2.31;96.08;103259.63;6103632;19;20702;-69
2023/03/01 07:44:28;;;;;;;47.05;21.95;;;;;;;-2.24;95.92;103261.72;6106355;19;20333;-69
2023/03/01 07:46:32;;;;;;;42.53;21.30;;;;;;;-2.10;95.90;103257.25;6108027;19;20021;-70
2023/03/01 07:48:37;;;;;;;50.78;23.60;;;;;;;-2.00;95.61;103258.59;6109152;19;20026;-70
2023/03/01 07:50:42;;;;;;;54.33;22.73;;;;;;;-1.91;95.44;103266.78;6108699;19;20014;-69
2023/03/01 07:52:50;;;;;;;54.35;23.60;;;;;;;-1.85;95.33;103264.50;6110697;19;20026;-68
2023/03/01 07:54:55;;;;;;;52.03;23.77;;;;;;;-1.74;95.33;103265.03;6106720;19;20018;-69
2023/03/01 07:57:02;;;;;;;65.75;24.42;;;;;;;-1.64;95.04;103267.25;6107034;19;20047;-70
2023/03/01 07:59:07;;;;;;;47.83;22.65;;;;;;;-1.55;95.13;103265.13;6108982;19;20015;-70
2023/03/01 08:01:15;;;;;;;62.55;24.08;;;;;;;-1.47;95.13;103265.50;6106947;19;20077;-70
2023/03/01 08:03:20;;;;;;;61.28;25.80;;;;;;;-1.37;94.90;103253.91;6103724;19;20014;-70
2023/03/01 08:05:24;;;;;;;54.38;22.20;;;;;;;-1.31;94.68;103261.06;6101753;19;20021;-70
2023/03/01 08:07:31;;;;;;;52.75;24.17;;;;;;;-1.29;94.17;103260.34;6103101;19;20019;-70
2023/03/01 08:09:37;;;;;;;67.15;25.50;;;;;;;-1.21;93.99;103247.78;6102850;19;20011;-70
2023/03/01 08:11:42;;;;;;;60.72;24.30;;;;;;;-1.17;93.93;103254.84;6099825;19;20039;-70
2023/03/01 08:13:50;;;;;;;53.85;22.73;;;;;;;-1.07;93.93;103251.00;6102395;19;20018;-69
2023/03/01 08:15:57;;;;;;;61.97;25.38;;;;;;;-1.03;93.83;103258.94;6099746;19;20027;-70
2023/03/01 08:18:02;;;;;;;60.38;25.70;;;;;;;-0.93;93.86;103249.94;6102988;19;20031;-69
2023/03/01 08:20:12;;;;;;;66.55;26.25;;;;;;;-0.82;93.81;103253.00;6101627;19;20021;-70
2023/03/01 08:22:17;;;;;;;55.35;24.58;;;;;;;-0.78;93.48;103239.44;6099753;19;20455;-70
2023/03/01 08:24:22;;;;;;;63.05;23.25;;;;;;;-0.69;93.28;103250.16;6103145;19;20018;-70
2023/03/01 08:26:28;;;;;;;56.20;25.42;;;;;;;-0.46;92.44;103246.88;6101673;19;20019;-70
2023/03/01 08:28:38;;;;;;;54.55;22.30;;;;;;;-0.29;92.26;103242.47;6101289;19;20007;-70
2023/03/01 08:30:45;;;;;;;62.63;23.88;;;;;;;-0.13;91.12;103244.00;6100612;19;20006;-70
2023/03/01 08:32:50;;;;;;;63.15;24.95;;;;;;;0.04;91.02;103247.28;6102903;19;20017;-70
2023/03/01 08:34:55;;;;;;;66.43;25.75;;;;;;;0.25;90.05;103236.06;6104659;19;20015;-70
2023/03/01 08:37:00;;;;;;;70.93;28.17;;;;;;;0.46;88.75;103238.63;6103081;19;20074;-70
2023/03/01 08:39:05;;;;;;;63.97;25.98;;;;;;;0.62;87.95;103233.22;6102717;19;20019;-70
2023/03/01 08:41:10;;;;;;;70.75;26.25;;;;;;;0.79;87.29;103233.88;6096135;19;20014;-70
2023/03/01 08:43:15;;;;;;;65.90;25.55;;;;;;;0.95;86.88;103232.75;6097590;19;20011;-70
2023/03/01 08:45:20;;;;;;;63.45;24.98;;;;;;;1.15;85.94;103225.72;6100768;19;20022;-70
2023/03/01 08:47:28;;;;;;;57.22;22.52;;;;;;;1.36;83.57;103234.28;6103065;19;20100;-70
2023/03/01 08:49:34;;;;;;;59.28;21.75;;;;;;;1.51;82.02;103226.19;6107956;19;20015;-71
2023/03/01 08:51:42;;;;;;;64.28;22.92;;;;;;;1.66;81.95;103229.31;6098071;19;20509;-71
2023/03/01 08:53:49;;;;;;;44.55;19.92;;;;;;;1.83;81.47;103234.19;6108919;19;20011;-70
2023/03/01 08:55:54;;;;;;;48.95;19.63;;;;;;;1.98;79.82;103229.53;6109994;19;20018;-71
2023/03/01 08:57:59;;;;;;;43.83;17.48;;;;;;;2.06;77.75;103233.25;6109268;19;20031;-71
2023/03/01 09:00:08;;;;;;;43.15;19.27;;;;;;;2.12;77.69;103232.56;6107389;19;20029;-71
2023/03/01 09:02:16;;;;;;;44.67;17.55;;;;;;;2.33;77.71;103233.25;6110148;19;20677;-71
2023/03/01 09:04:24;;;;;;;49.40;19.27;;;;;;;2.48;76.84;103232.88;6086257;19;20047;-70
2023/03/01 09:06:29;;;;;;;44.72;17.33;;;;;;;2.63;76.69;103229.84;6102167;19;20019;-70
2023/03/01 09:08:36;;;;;;;39.00;16.30;;;;;;;2.76;73.85;103223.31;6107335;19;20122;-70
2023/03/01 09:10:41;;;;;;;46.20;17.60;;;;;;;2.80;72.96;103220.00;6109848;19;20478;-70
2023/03/01 09:12:46;;;;;;;39.10;18.38;;;;;;;2.98;73.11;103223.16;6109096;19;20039;-70
2023/03/01 09:14:51;;;;;;;37.85;17.88;;;;;;;3.13;74.17;103221.81;6110435;19;20019;-70
2023/03/01 09:16:56;;;;;;;51.78;19.90;;;;;;;3.23;75.54;103216.03;6108141;19;20442;-70
2023/03/01 09:19:01;;;;;;;40.35;16.30;;;;;;;3.25;72.75;103207.44;6109041;19;20029;-70
2023/03/01 09:21:10;;;;;;;44.55;17.45;;;;;;;3.27;71.71;103207.50;6106656;19;20014;-69
2023/03/01 09:23:15;;;;;;;41.35;18.10;;;;;;;3.27;71.00;103204.91;6106781;19;20697;-69
2023/03/01 09:25:20;;;;;;;37.92;15.85;;;;;;;3.44;69.76;103206.22;6106158;19;20019;-69
2023/03/01 09:27:25;;;;;;;32.58;14.95;;;;;;;3.54;69.01;103203.91;6104533;19;20678;-76
2023/03/01 09:29:32;;;;;;;35.35;15.05;;;;;;;3.52;68.25;103202.13;6106452;19;20014;-76
2023/03/01 09:31:36;;;;;;;33.28;15.38;;;;;;;3.67;69.58;103199.06;6107103;19;20416;-76
2023/03/01 09:33:43;;;;;;;36.63;13.27;;;;;;;3.85;67.36;103197.78;6105526;19;20043;-76
2023/03/01 09:35:48;;;;;;;32.20;15.35;;;;;;;3.96;67.90;103193.72;6110455;19;20114;-76
2023/03/01 09:37:56;;;;;;;35.50;15.27;;;;;;;4.07;67.69;103191.38;6106855;19;20018;-76
2023/03/01 09:40:01;;;;;;;40.90;15.73;;;;;;;4.16;68.54;103188.97;6104838;19;20034;-76
2023/03/01 09:42:06;;;;;;;33.72;16.17;;;;;;;4.21;67.50;103187.38;6109842;19;20013;-76